sensor_id;sensor_type;location;lat;lon;timestamp;temperature;humidity
20291;DHT22;10304;51.074;13.754;2024-03-08T00:00:18;8.10;1.00
20291;DHT22;10304;51.074;13.754;2024-03-08T00:02:46;7.90;1.00
20291;DHT22;10304;51.074;13.754;2024-03-08T00:05:13;7.80;1.00
20291;DHT22;10304;51.074;13.754;2024-03-08T00:07:41;7.70;1.00
20291;DHT22;10304;51.074;13.754;2024-03-08T00:10:10;7.60;1.00
20291;DHT22;10304;51.074;13.754;2024-03-08T00:12:46;7.50;1.00
20291;DHT22;10304;51.074;13.754;2024-03-08T00:15:15;7.50;1.00
20291;DHT22;10304;51.074;13.754;2024-03-08T00:17:45;7.40;1.00
20291;DHT22;10304;51.074;13.754;2024-03-08T00:20:13;7.30;1.00
20291;DHT22;10304;51.074;13.754;2024-03-08T00:22:41;7.20;1.00
20291;DHT22;10304;51.074;13.754;2024-03-08T00:25:08;7.20;1.00
20291;DHT22;10304;51.074;13.754;2024-03-08T00:27:38;7.10;1.00
20291;DHT22;10304;51.074;13.754;2024-03-08T00:30:06;7.00;1.00
20291;DHT22;10304;51.074;13.754;2024-03-08T00:32:33;7.00;1.00
20291;DHT22;10304;51.074;13.754;2024-03-08T00:35:01;6.90;1.00
20291;DHT22;10304;51.074;13.754;2024-03-08T00:37:28;6.80;1.00
20291;DHT22;10304;51.074;13.754;2024-03-08T00:39:55;6.70;1.00
20291;DHT22;10304;51.074;13.754;2024-03-08T00:42:21;6.70;1.00
20291;DHT22;10304;51.074;13.754;2024-03-08T00:44:48;6.60;1.00
20291;DHT22;10304;51.074;13.754;2024-03-08T00:47:18;6.50;1.00
20291;DHT22;10304;51.074;13.754;2024-03-08T00:49:44;6.50;1.00
20291;DHT22;10304;51.074;13.754;2024-03-08T00:52:11;6.40;1.00
20291;DHT22;10304;51.074;13.754;2024-03-08T00:54:38;6.30;1.00
20291;DHT22;10304;51.074;13.754;2024-03-08T00:57:05;6.30;1.00
20291;DHT22;10304;51.074;13.754;2024-03-08T00:59:33;6.20;1.00
20291;DHT22;10304;51.074;13.754;2024-03-08T01:02:01;6.10;1.00
20291;DHT22;10304;51.074;13.754;2024-03-08T01:04:29;6.10;1.00
20291;DHT22;10304;51.074;13.754;2024-03-08T01:06:56;6.00;1.00
20291;DHT22;10304;51.074;13.754;2024-03-08T01:09:24;5.90;1.00
20291;DHT22;10304;51.074;13.754;2024-03-08T01:11:50;5.90;1.00
20291;DHT22;10304;51.074;13.754;2024-03-08T01:14:17;5.80;1.00
20291;DHT22;10304;51.074;13.754;2024-03-08T01:16:44;5.70;1.00
20291;DHT22;10304;51.074;13.754;2024-03-08T01:19:11;5.70;1.00
20291;DHT22;10304;51.074;13.754;2024-03-08T01:21:37;5.60;1.00
20291;DHT22;10304;51.074;13.754;2024-03-08T01:24:04;5.60;1.00
20291;DHT22;10304;51.074;13.754;2024-03-08T01:26:31;5.60;1.00
20291;DHT22;10304;51.074;13.754;2024-03-08T01:29:00;5.50;1.00
20291;DHT22;10304;51.074;13.754;2024-03-08T01:31:30;5.40;1.00
20291;DHT22;10304;51.074;13.754;2024-03-08T01:33:57;5.30;1.00
20291;DHT22;10304;51.074;13.754;2024-03-08T01:36:24;5.30;1.00
20291;DHT22;10304;51.074;13.754;2024-03-08T01:38:52;5.30;1.00
20291;DHT22;10304;51.074;13.754;2024-03-08T01:41:19;5.30;1.00
20291;DHT22;10304;51.074;13.754;2024-03-08T01:43:46;5.30;1.00
20291;DHT22;10304;51.074;13.754;2024-03-08T01:46:15;5.20;1.00
20291;DHT22;10304;51.074;13.754;2024-03-08T01:48:44;5.20;1.00
20291;DHT22;10304;51.074;13.754;2024-03-08T01:51:12;5.20;1.00
20291;DHT22;10304;51.074;13.754;2024-03-08T01:53:43;5.10;1.00
20291;DHT22;10304;51.074;13.754;2024-03-08T01:56:13;5.10;1.00
20291;DHT22;10304;51.074;13.754;2024-03-08T01:58:41;5.00;1.00
20291;DHT22;10304;51.074;13.754;2024-03-08T02:01:12;5.00;1.00
20291;DHT22;10304;51.074;13.754;2024-03-08T02:03:42;4.90;1.00
20291;DHT22;10304;51.074;13.754;2024-03-08T02:06:13;4.90;9.60
20291;DHT22;10304;51.074;13.754;2024-03-08T02:08:44;4.80;12.10
20291;DHT22;10304;51.074;13.754;2024-03-08T02:11:12;4.70;12.70
20291;DHT22;10304;51.074;13.754;2024-03-08T02:13:39;4.70;26.70
20291;DHT22;10304;51.074;13.754;2024-03-08T02:16:06;4.70;48.60
20291;DHT22;10304;51.074;13.754;2024-03-08T02:18:35;4.60;52.90
20291;DHT22;10304;51.074;13.754;2024-03-08T02:21:04;4.50;93.50
20291;DHT22;10304;51.074;13.754;2024-03-08T02:23:32;4.50;93.30
20291;DHT22;10304;51.074;13.754;2024-03-08T02:26:00;4.50;91.20
20291;DHT22;10304;51.074;13.754;2024-03-08T02:28:27;4.40;91.20
20291;DHT22;10304;51.074;13.754;2024-03-08T02:30:54;4.40;99.90
20291;DHT22;10304;51.074;13.754;2024-03-08T02:33:23;4.40;99.90
20291;DHT22;10304;51.074;13.754;2024-03-08T02:35:50;4.40;99.90
20291;DHT22;10304;51.074;13.754;2024-03-08T02:38:19;4.30;99.90
20291;DHT22;10304;51.074;13.754;2024-03-08T02:40:48;4.30;99.90
20291;DHT22;10304;51.074;13.754;2024-03-08T02:43:16;4.30;99.90
20291;DHT22;10304;51.074;13.754;2024-03-08T02:45:44;4.30;99.90
20291;DHT22;10304;51.074;13.754;2024-03-08T02:48:15;4.20;99.90
20291;DHT22;10304;51.074;13.754;2024-03-08T02:50:43;4.20;99.90
20291;DHT22;10304;51.074;13.754;2024-03-08T02:53:12;4.20;99.90
20291;DHT22;10304;51.074;13.754;2024-03-08T02:55:40;4.20;99.90
20291;DHT22;10304;51.074;13.754;2024-03-08T02:58:08;4.20;99.90
20291;DHT22;10304;51.074;13.754;2024-03-08T03:00:38;4.20;99.90
20291;DHT22;10304;51.074;13.754;2024-03-08T03:03:06;4.20;99.90
20291;DHT22;10304;51.074;13.754;2024-03-08T03:05:33;4.20;99.90
20291;DHT22;10304;51.074;13.754;2024-03-08T03:08:01;4.10;99.90
20291;DHT22;10304;51.074;13.754;2024-03-08T03:10:28;4.10;99.90
20291;DHT22;10304;51.074;13.754;2024-03-08T03:12:54;4.10;99.90
20291;DHT22;10304;51.074;13.754;2024-03-08T03:15:21;4.10;99.90
20291;DHT22;10304;51.074;13.754;2024-03-08T03:17:53;4.10;99.90
20291;DHT22;10304;51.074;13.754;2024-03-08T03:20:20;4.00;99.90
20291;DHT22;10304;51.074;13.754;2024-03-08T03:22:53;4.00;99.90
20291;DHT22;10304;51.074;13.754;2024-03-08T03:25:21;3.90;99.90
20291;DHT22;10304;51.074;13.754;2024-03-08T03:27:55;3.90;99.90
20291;DHT22;10304;51.074;13.754;2024-03-08T03:30:25;3.90;99.90
20291;DHT22;10304;51.074;13.754;2024-03-08T03:33:00;3.90;99.90
20291;DHT22;10304;51.074;13.754;2024-03-08T03:35:28;3.90;99.90
20291;DHT22;10304;51.074;13.754;2024-03-08T03:37:58;3.80;99.90
20291;DHT22;10304;51.074;13.754;2024-03-08T03:40:39;3.90;99.90
20291;DHT22;10304;51.074;13.754;2024-03-08T03:43:07;3.80;99.90
20291;DHT22;10304;51.074;13.754;2024-03-08T03:45:39;3.80;99.90
20291;DHT22;10304;51.074;13.754;2024-03-08T03:48:08;3.90;99.90
20291;DHT22;10304;51.074;13.754;2024-03-08T03:50:38;3.80;99.90
20291;DHT22;10304;51.074;13.754;2024-03-08T03:53:07;3.80;99.90
20291;DHT22;10304;51.074;13.754;2024-03-08T03:55:35;3.80;99.90
20291;DHT22;10304;51.074;13.754;2024-03-08T03:58:03;3.90;99.90
20291;DHT22;10304;51.074;13.754;2024-03-08T04:00:30;3.80;99.90
20291;DHT22;10304;51.074;13.754;2024-03-08T04:02:57;3.80;99.90
20291;DHT22;10304;51.074;13.754;2024-03-08T04:05:27;3.80;99.90
20291;DHT22;10304;51.074;13.754;2024-03-08T04:07:54;3.70;99.90
20291;DHT22;10304;51.074;13.754;2024-03-08T04:10:21;3.70;99.90
20291;DHT22;10304;51.074;13.754;2024-03-08T04:12:48;3.70;99.90
20291;DHT22;10304;51.074;13.754;2024-03-08T04:15:14;3.70;99.90
20291;DHT22;10304;51.074;13.754;2024-03-08T04:17:42;3.70;1.00
20291;DHT22;10304;51.074;13.754;2024-03-08T04:20:09;3.70;99.90
20291;DHT22;10304;51.074;13.754;2024-03-08T04:22:37;3.70;1.00
20291;DHT22;10304;51.074;13.754;2024-03-08T04:25:05;3.70;1.00
20291;DHT22;10304;51.074;13.754;2024-03-08T04:27:33;3.60;1.00
20291;DHT22;10304;51.074;13.754;2024-03-08T04:30:01;3.60;1.00
20291;DHT22;10304;51.074;13.754;2024-03-08T04:32:28;3.60;1.00
20291;DHT22;10304;51.074;13.754;2024-03-08T04:34:57;3.60;1.00
20291;DHT22;10304;51.074;13.754;2024-03-08T04:37:24;3.50;1.00
20291;DHT22;10304;51.074;13.754;2024-03-08T04:39:52;3.60;1.00
20291;DHT22;10304;51.074;13.754;2024-03-08T04:42:18;3.60;1.00
20291;DHT22;10304;51.074;13.754;2024-03-08T04:44:45;3.60;1.00
20291;DHT22;10304;51.074;13.754;2024-03-08T04:47:12;3.60;1.00
20291;DHT22;10304;51.074;13.754;2024-03-08T04:49:39;3.60;1.00
20291;DHT22;10304;51.074;13.754;2024-03-08T04:52:06;3.60;1.00
20291;DHT22;10304;51.074;13.754;2024-03-08T04:54:33;3.60;1.00
20291;DHT22;10304;51.074;13.754;2024-03-08T04:57:01;3.60;1.00
20291;DHT22;10304;51.074;13.754;2024-03-08T04:59:32;3.60;1.00
20291;DHT22;10304;51.074;13.754;2024-03-08T05:01:59;3.50;1.00
20291;DHT22;10304;51.074;13.754;2024-03-08T05:04:26;3.60;1.00
20291;DHT22;10304;51.074;13.754;2024-03-08T05:06:53;3.50;1.00
20291;DHT22;10304;51.074;13.754;2024-03-08T05:09:20;3.50;1.00
20291;DHT22;10304;51.074;13.754;2024-03-08T05:11:47;3.50;1.00
20291;DHT22;10304;51.074;13.754;2024-03-08T05:14:14;3.50;1.00
20291;DHT22;10304;51.074;13.754;2024-03-08T05:16:44;3.50;1.00
20291;DHT22;10304;51.074;13.754;2024-03-08T05:19:16;3.40;1.00
20291;DHT22;10304;51.074;13.754;2024-03-08T05:21:44;3.40;1.00
20291;DHT22;10304;51.074;13.754;2024-03-08T05:24:11;3.40;1.00
20291;DHT22;10304;51.074;13.754;2024-03-08T05:26:38;3.40;1.00
20291;DHT22;10304;51.074;13.754;2024-03-08T05:29:05;3.40;1.00
20291;DHT22;10304;51.074;13.754;2024-03-08T05:31:46;3.40;1.00
20291;DHT22;10304;51.074;13.754;2024-03-08T05:34:15;3.40;1.00
20291;DHT22;10304;51.074;13.754;2024-03-08T05:36:42;3.40;1.00
20291;DHT22;10304;51.074;13.754;2024-03-08T05:39:13;3.40;1.00
20291;DHT22;10304;51.074;13.754;2024-03-08T05:41:40;3.40;1.00
20291;DHT22;10304;51.074;13.754;2024-03-08T05:44:08;3.40;1.00
20291;DHT22;10304;51.074;13.754;2024-03-08T05:46:36;3.40;1.00
20291;DHT22;10304;51.074;13.754;2024-03-08T05:49:03;3.40;1.00
20291;DHT22;10304;51.074;13.754;2024-03-08T05:51:33;3.40;1.00
20291;DHT22;10304;51.074;13.754;2024-03-08T05:54:08;3.40;1.00
20291;DHT22;10304;51.074;13.754;2024-03-08T05:56:38;3.40;1.00
20291;DHT22;10304;51.074;13.754;2024-03-08T05:59:09;3.40;1.00
20291;DHT22;10304;51.074;13.754;2024-03-08T06:01:36;3.40;1.00
20291;DHT22;10304;51.074;13.754;2024-03-08T06:04:04;3.40;1.00
20291;DHT22;10304;51.074;13.754;2024-03-08T06:06:31;3.30;1.00
20291;DHT22;10304;51.074;13.754;2024-03-08T06:08:58;3.40;1.00
20291;DHT22;10304;51.074;13.754;2024-03-08T06:11:26;3.40;1.00
20291;DHT22;10304;51.074;13.754;2024-03-08T06:13:57;3.40;99.90
20291;DHT22;10304;51.074;13.754;2024-03-08T06:16:27;3.40;99.90
20291;DHT22;10304;51.074;13.754;2024-03-08T06:18:57;3.40;99.90
20291;DHT22;10304;51.074;13.754;2024-03-08T06:21:24;3.40;16.30
20291;DHT22;10304;51.074;13.754;2024-03-08T06:23:54;3.50;24.80
20291;DHT22;10304;51.074;13.754;2024-03-08T06:26:22;3.40;8.70
20291;DHT22;10304;51.074;13.754;2024-03-08T06:28:48;3.50;1.00
20291;DHT22;10304;51.074;13.754;2024-03-08T06:31:15;3.50;1.00
20291;DHT22;10304;51.074;13.754;2024-03-08T06:33:42;3.50;1.00
20291;DHT22;10304;51.074;13.754;2024-03-08T06:36:09;3.60;1.00
20291;DHT22;10304;51.074;13.754;2024-03-08T06:38:38;3.70;1.00
20291;DHT22;10304;51.074;13.754;2024-03-08T06:41:09;3.70;1.00
20291;DHT22;10304;51.074;13.754;2024-03-08T06:43:46;3.80;1.00
20291;DHT22;10304;51.074;13.754;2024-03-08T06:46:17;3.90;99.90
20291;DHT22;10304;51.074;13.754;2024-03-08T06:48:44;3.90;61.90
20291;DHT22;10304;51.074;13.754;2024-03-08T06:51:13;4.00;1.00
20291;DHT22;10304;51.074;13.754;2024-03-08T06:53:41;4.00;1.00
20291;DHT22;10304;51.074;13.754;2024-03-08T06:56:08;4.10;1.00
20291;DHT22;10304;51.074;13.754;2024-03-08T06:58:35;4.10;1.00
20291;DHT22;10304;51.074;13.754;2024-03-08T07:01:02;4.20;1.00
20291;DHT22;10304;51.074;13.754;2024-03-08T07:03:31;4.30;1.00
20291;DHT22;10304;51.074;13.754;2024-03-08T07:05:59;4.30;1.00
20291;DHT22;10304;51.074;13.754;2024-03-08T07:08:30;4.40;1.00
20291;DHT22;10304;51.074;13.754;2024-03-08T07:10:57;4.50;1.00
20291;DHT22;10304;51.074;13.754;2024-03-08T07:13:25;4.50;1.00
20291;DHT22;10304;51.074;13.754;2024-03-08T07:15:55;4.50;1.00
20291;DHT22;10304;51.074;13.754;2024-03-08T07:18:22;4.50;1.00
20291;DHT22;10304;51.074;13.754;2024-03-08T07:20:49;4.60;1.00
20291;DHT22;10304;51.074;13.754;2024-03-08T07:23:17;4.60;1.00
20291;DHT22;10304;51.074;13.754;2024-03-08T07:26:04;4.70;1.00
20291;DHT22;10304;51.074;13.754;2024-03-08T07:28:31;4.80;1.00
20291;DHT22;10304;51.074;13.754;2024-03-08T07:31:01;5.00;1.00
20291;DHT22;10304;51.074;13.754;2024-03-08T07:33:50;5.00;1.00
20291;DHT22;10304;51.074;13.754;2024-03-08T07:36:17;5.00;1.00
20291;DHT22;10304;51.074;13.754;2024-03-08T07:38:45;5.10;1.00
20291;DHT22;10304;51.074;13.754;2024-03-08T07:41:15;5.10;1.00
20291;DHT22;10304;51.074;13.754;2024-03-08T07:43:42;5.20;1.00
20291;DHT22;10304;51.074;13.754;2024-03-08T07:46:09;5.30;1.00
20291;DHT22;10304;51.074;13.754;2024-03-08T07:48:36;5.40;1.00
20291;DHT22;10304;51.074;13.754;2024-03-08T07:51:04;5.40;1.00
20291;DHT22;10304;51.074;13.754;2024-03-08T07:53:31;5.50;1.00
20291;DHT22;10304;51.074;13.754;2024-03-08T07:55:58;5.60;1.00
20291;DHT22;10304;51.074;13.754;2024-03-08T07:58:25;5.70;1.00
20291;DHT22;10304;51.074;13.754;2024-03-08T08:00:52;5.80;1.00
20291;DHT22;10304;51.074;13.754;2024-03-08T08:03:18;6.00;1.00
20291;DHT22;10304;51.074;13.754;2024-03-08T08:05:47;6.10;1.00
20291;DHT22;10304;51.074;13.754;2024-03-08T08:08:16;6.20;99.90
20291;DHT22;10304;51.074;13.754;2024-03-08T08:10:42;6.40;99.90
20291;DHT22;10304;51.074;13.754;2024-03-08T08:13:09;6.50;99.90
20291;DHT22;10304;51.074;13.754;2024-03-08T08:15:36;6.60;99.90
20291;DHT22;10304;51.074;13.754;2024-03-08T08:18:03;6.80;99.90
20291;DHT22;10304;51.074;13.754;2024-03-08T08:20:33;6.90;99.90
20291;DHT22;10304;51.074;13.754;2024-03-08T08:23:00;7.10;99.90
20291;DHT22;10304;51.074;13.754;2024-03-08T08:25:27;7.30;99.90
20291;DHT22;10304;51.074;13.754;2024-03-08T08:27:54;7.50;99.90
20291;DHT22;10304;51.074;13.754;2024-03-08T08:30:21;7.70;99.90
20291;DHT22;10304;51.074;13.754;2024-03-08T08:32:48;7.90;99.90
20291;DHT22;10304;51.074;13.754;2024-03-08T08:35:16;8.10;99.90
20291;DHT22;10304;51.074;13.754;2024-03-08T08:37:45;8.30;99.90
20291;DHT22;10304;51.074;13.754;2024-03-08T08:40:14;8.50;83.50
20291;DHT22;10304;51.074;13.754;2024-03-08T08:42:45;8.60;40.60
20291;DHT22;10304;51.074;13.754;2024-03-08T08:45:16;8.90;39.60
20291;DHT22;10304;51.074;13.754;2024-03-08T08:47:52;9.20;99.90
20291;DHT22;10304;51.074;13.754;2024-03-08T08:50:19;9.50;9.40
20291;DHT22;10304;51.074;13.754;2024-03-08T08:52:51;9.80;1.00
20291;DHT22;10304;51.074;13.754;2024-03-08T08:55:19;10.00;1.00
20291;DHT22;10304;51.074;13.754;2024-03-08T08:57:48;10.30;1.00
20291;DHT22;10304;51.074;13.754;2024-03-08T09:00:16;10.40;1.00
20291;DHT22;10304;51.074;13.754;2024-03-08T09:02:44;10.60;1.00
20291;DHT22;10304;51.074;13.754;2024-03-08T09:05:11;10.80;1.00
20291;DHT22;10304;51.074;13.754;2024-03-08T09:07:41;11.00;1.00
20291;DHT22;10304;51.074;13.754;2024-03-08T09:10:08;11.10;1.00
20291;DHT22;10304;51.074;13.754;2024-03-08T09:12:40;11.30;1.00
20291;DHT22;10304;51.074;13.754;2024-03-08T09:15:08;11.40;1.00
20291;DHT22;10304;51.074;13.754;2024-03-08T09:17:39;11.60;1.00
20291;DHT22;10304;51.074;13.754;2024-03-08T09:20:09;11.70;1.00
20291;DHT22;10304;51.074;13.754;2024-03-08T09:22:38;11.90;1.00
20291;DHT22;10304;51.074;13.754;2024-03-08T09:25:06;12.10;1.00
20291;DHT22;10304;51.074;13.754;2024-03-08T09:27:34;12.30;1.00
20291;DHT22;10304;51.074;13.754;2024-03-08T09:30:06;12.60;1.00
20291;DHT22;10304;51.074;13.754;2024-03-08T09:32:35;12.80;1.00
20291;DHT22;10304;51.074;13.754;2024-03-08T09:35:04;13.00;1.00
20291;DHT22;10304;51.074;13.754;2024-03-08T09:37:34;13.20;1.00
20291;DHT22;10304;51.074;13.754;2024-03-08T09:40:01;13.40;1.00
20291;DHT22;10304;51.074;13.754;2024-03-08T09:42:36;13.70;1.00
20291;DHT22;10304;51.074;13.754;2024-03-08T09:45:09;13.90;1.00
20291;DHT22;10304;51.074;13.754;2024-03-08T09:47:43;14.10;1.00
20291;DHT22;10304;51.074;13.754;2024-03-08T09:50:11;14.30;1.00
20291;DHT22;10304;51.074;13.754;2024-03-08T09:52:39;14.50;1.00
20291;DHT22;10304;51.074;13.754;2024-03-08T09:55:07;14.60;1.00
20291;DHT22;10304;51.074;13.754;2024-03-08T09:57:36;14.70;1.00
20291;DHT22;10304;51.074;13.754;2024-03-08T10:00:05;14.90;1.00
20291;DHT22;10304;51.074;13.754;2024-03-08T10:02:45;15.20;1.00
20291;DHT22;10304;51.074;13.754;2024-03-08T10:05:13;15.40;1.00
20291;DHT22;10304;51.074;13.754;2024-03-08T10:07:40;15.70;1.00
20291;DHT22;10304;51.074;13.754;2024-03-08T10:10:07;15.90;1.00
20291;DHT22;10304;51.074;13.754;2024-03-08T10:12:35;16.10;1.00
20291;DHT22;10304;51.074;13.754;2024-03-08T10:15:02;16.30;1.00
20291;DHT22;10304;51.074;13.754;2024-03-08T10:17:29;16.40;1.00
20291;DHT22;10304;51.074;13.754;2024-03-08T10:19:59;16.60;1.00
20291;DHT22;10304;51.074;13.754;2024-03-08T10:22:26;16.80;1.00
20291;DHT22;10304;51.074;13.754;2024-03-08T10:24:53;17.10;1.00
20291;DHT22;10304;51.074;13.754;2024-03-08T10:27:20;17.30;1.00
20291;DHT22;10304;51.074;13.754;2024-03-08T10:29:48;17.50;1.00
20291;DHT22;10304;51.074;13.754;2024-03-08T10:32:14;17.70;1.00
20291;DHT22;10304;51.074;13.754;2024-03-08T10:34:41;17.80;1.00
20291;DHT22;10304;51.074;13.754;2024-03-08T10:37:14;17.90;1.00
20291;DHT22;10304;51.074;13.754;2024-03-08T10:39:50;18.00;1.00
20291;DHT22;10304;51.074;13.754;2024-03-08T10:42:27;18.10;1.00
20291;DHT22;10304;51.074;13.754;2024-03-08T10:45:08;18.30;1.00
20291;DHT22;10304;51.074;13.754;2024-03-08T10:47:41;18.60;1.00
20291;DHT22;10304;51.074;13.754;2024-03-08T10:50:18;18.80;1.00
20291;DHT22;10304;51.074;13.754;2024-03-08T10:52:52;19.00;1.00
20291;DHT22;10304;51.074;13.754;2024-03-08T10:55:19;19.20;1.00
20291;DHT22;10304;51.074;13.754;2024-03-08T10:57:48;19.30;1.00
20291;DHT22;10304;51.074;13.754;2024-03-08T11:00:14;19.40;1.00
20291;DHT22;10304;51.074;13.754;2024-03-08T11:02:45;19.50;1.00
20291;DHT22;10304;51.074;13.754;2024-03-08T11:05:32;19.70;1.00
20291;DHT22;10304;51.074;13.754;2024-03-08T11:08:02;19.90;1.00
20291;DHT22;10304;51.074;13.754;2024-03-08T11:10:30;20.00;1.00
20291;DHT22;10304;51.074;13.754;2024-03-08T11:12:57;20.10;1.00
20291;DHT22;10304;51.074;13.754;2024-03-08T11:15:25;20.20;1.00
20291;DHT22;10304;51.074;13.754;2024-03-08T11:17:51;20.30;1.00
20291;DHT22;10304;51.074;13.754;2024-03-08T11:20:23;20.40;1.00
20291;DHT22;10304;51.074;13.754;2024-03-08T11:22:53;20.50;1.00
20291;DHT22;10304;51.074;13.754;2024-03-08T11:25:34;20.60;1.00
20291;DHT22;10304;51.074;13.754;2024-03-08T11:28:13;20.80;1.00
20291;DHT22;10304;51.074;13.754;2024-03-08T11:33:35;21.00;1.00
20291;DHT22;10304;51.074;13.754;2024-03-08T11:36:07;21.10;1.00
20291;DHT22;10304;51.074;13.754;2024-03-08T11:38:41;21.20;1.00
20291;DHT22;10304;51.074;13.754;2024-03-08T11:41:10;21.30;1.00
20291;DHT22;10304;51.074;13.754;2024-03-08T11:43:47;21.40;1.00
20291;DHT22;10304;51.074;13.754;2024-03-08T11:46:16;21.40;1.00
20291;DHT22;10304;51.074;13.754;2024-03-08T11:48:44;21.50;1.00
20291;DHT22;10304;51.074;13.754;2024-03-08T11:51:14;21.60;1.00
20291;DHT22;10304;51.074;13.754;2024-03-08T11:53:41;21.70;1.00
20291;DHT22;10304;51.074;13.754;2024-03-08T11:56:14;21.80;1.00
20291;DHT22;10304;51.074;13.754;2024-03-08T11:58:41;21.80;1.00
20291;DHT22;10304;51.074;13.754;2024-03-08T12:01:11;21.90;1.00
20291;DHT22;10304;51.074;13.754;2024-03-08T12:03:43;21.90;1.00
20291;DHT22;10304;51.074;13.754;2024-03-08T12:06:11;22.10;1.00
20291;DHT22;10304;51.074;13.754;2024-03-08T12:08:39;22.10;1.00
20291;DHT22;10304;51.074;13.754;2024-03-08T12:11:07;22.20;1.00
20291;DHT22;10304;51.074;13.754;2024-03-08T12:13:37;22.30;1.00
20291;DHT22;10304;51.074;13.754;2024-03-08T12:16:04;22.40;1.00
20291;DHT22;10304;51.074;13.754;2024-03-08T12:18:38;22.60;1.00
20291;DHT22;10304;51.074;13.754;2024-03-08T12:21:10;22.80;1.00
20291;DHT22;10304;51.074;13.754;2024-03-08T12:23:38;22.80;1.00
20291;DHT22;10304;51.074;13.754;2024-03-08T12:26:25;22.90;1.00
20291;DHT22;10304;51.074;13.754;2024-03-08T12:28:52;23.00;1.00
20291;DHT22;10304;51.074;13.754;2024-03-08T12:31:20;23.00;1.00
20291;DHT22;10304;51.074;13.754;2024-03-08T12:33:54;23.00;1.00
20291;DHT22;10304;51.074;13.754;2024-03-08T12:36:23;23.20;1.00
20291;DHT22;10304;51.074;13.754;2024-03-08T12:38:51;23.30;1.00
20291;DHT22;10304;51.074;13.754;2024-03-08T12:41:19;23.40;1.00
20291;DHT22;10304;51.074;13.754;2024-03-08T12:43:46;23.50;1.00
20291;DHT22;10304;51.074;13.754;2024-03-08T12:46:20;23.50;1.00
20291;DHT22;10304;51.074;13.754;2024-03-08T12:48:48;23.60;1.00
20291;DHT22;10304;51.074;13.754;2024-03-08T12:51:15;23.60;1.00
20291;DHT22;10304;51.074;13.754;2024-03-08T12:53:43;23.70;1.00
20291;DHT22;10304;51.074;13.754;2024-03-08T12:56:31;23.70;1.00
20291;DHT22;10304;51.074;13.754;2024-03-08T12:59:01;23.90;1.00
20291;DHT22;10304;51.074;13.754;2024-03-08T13:01:28;23.90;1.00
20291;DHT22;10304;51.074;13.754;2024-03-08T13:03:55;24.00;1.00
20291;DHT22;10304;51.074;13.754;2024-03-08T13:06:25;24.20;1.00
20291;DHT22;10304;51.074;13.754;2024-03-08T13:08:51;24.30;1.00
20291;DHT22;10304;51.074;13.754;2024-03-08T13:11:22;24.40;1.00
20291;DHT22;10304;51.074;13.754;2024-03-08T13:13:51;24.50;1.00
20291;DHT22;10304;51.074;13.754;2024-03-08T13:16:19;24.70;1.00
20291;DHT22;10304;51.074;13.754;2024-03-08T13:18:46;24.90;1.00
20291;DHT22;10304;51.074;13.754;2024-03-08T13:21:20;24.80;1.00
20291;DHT22;10304;51.074;13.754;2024-03-08T13:23:50;24.90;1.00
20291;DHT22;10304;51.074;13.754;2024-03-08T13:26:19;24.90;1.00
20291;DHT22;10304;51.074;13.754;2024-03-08T13:28:50;24.90;1.00
20291;DHT22;10304;51.074;13.754;2024-03-08T13:31:21;25.00;1.00
20291;DHT22;10304;51.074;13.754;2024-03-08T13:33:47;25.10;1.00
20291;DHT22;10304;51.074;13.754;2024-03-08T13:36:14;25.00;1.00
20291;DHT22;10304;51.074;13.754;2024-03-08T13:38:43;25.10;1.00
20291;DHT22;10304;51.074;13.754;2024-03-08T13:41:10;25.10;1.00
20291;DHT22;10304;51.074;13.754;2024-03-08T13:43:38;25.10;1.00
20291;DHT22;10304;51.074;13.754;2024-03-08T13:46:06;25.10;1.00
20291;DHT22;10304;51.074;13.754;2024-03-08T13:48:33;25.00;1.00
20291;DHT22;10304;51.074;13.754;2024-03-08T13:51:00;25.10;1.00
20291;DHT22;10304;51.074;13.754;2024-03-08T13:53:27;25.10;1.00
20291;DHT22;10304;51.074;13.754;2024-03-08T13:55:54;25.10;1.00
20291;DHT22;10304;51.074;13.754;2024-03-08T13:58:24;25.10;1.00
20291;DHT22;10304;51.074;13.754;2024-03-08T14:00:50;25.20;1.00
20291;DHT22;10304;51.074;13.754;2024-03-08T14:03:18;25.20;1.00
20291;DHT22;10304;51.074;13.754;2024-03-08T14:05:44;25.20;1.00
20291;DHT22;10304;51.074;13.754;2024-03-08T14:08:13;24.90;1.00
20291;DHT22;10304;51.074;13.754;2024-03-08T14:10:40;24.80;1.00
20291;DHT22;10304;51.074;13.754;2024-03-08T14:13:09;24.70;1.00
20291;DHT22;10304;51.074;13.754;2024-03-08T14:15:38;24.60;1.00
20291;DHT22;10304;51.074;13.754;2024-03-08T14:18:09;24.60;1.00
20291;DHT22;10304;51.074;13.754;2024-03-08T14:20:36;24.70;1.00
20291;DHT22;10304;51.074;13.754;2024-03-08T14:23:03;24.60;1.00
20291;DHT22;10304;51.074;13.754;2024-03-08T14:25:33;24.70;1.00
20291;DHT22;10304;51.074;13.754;2024-03-08T14:28:00;24.90;1.00
20291;DHT22;10304;51.074;13.754;2024-03-08T14:30:34;25.00;1.00
20291;DHT22;10304;51.074;13.754;2024-03-08T14:33:02;25.10;1.00
20291;DHT22;10304;51.074;13.754;2024-03-08T14:35:30;25.10;1.00
20291;DHT22;10304;51.074;13.754;2024-03-08T14:37:57;25.30;1.00
20291;DHT22;10304;51.074;13.754;2024-03-08T14:40:24;25.40;1.00
20291;DHT22;10304;51.074;13.754;2024-03-08T14:42:53;25.50;1.00
20291;DHT22;10304;51.074;13.754;2024-03-08T14:45:20;25.50;1.00
20291;DHT22;10304;51.074;13.754;2024-03-08T14:47:47;25.40;1.00
20291;DHT22;10304;51.074;13.754;2024-03-08T14:50:18;25.40;1.00
20291;DHT22;10304;51.074;13.754;2024-03-08T14:52:46;25.30;1.00
20291;DHT22;10304;51.074;13.754;2024-03-08T14:55:21;25.30;1.00
20291;DHT22;10304;51.074;13.754;2024-03-08T14:57:52;25.30;1.00
20291;DHT22;10304;51.074;13.754;2024-03-08T15:00:21;25.20;1.00
20291;DHT22;10304;51.074;13.754;2024-03-08T15:02:54;25.10;1.00
20291;DHT22;10304;51.074;13.754;2024-03-08T15:05:21;25.00;1.00
20291;DHT22;10304;51.074;13.754;2024-03-08T15:07:53;25.00;1.00
20291;DHT22;10304;51.074;13.754;2024-03-08T15:10:21;24.90;1.00
20291;DHT22;10304;51.074;13.754;2024-03-08T15:12:52;24.90;1.00
20291;DHT22;10304;51.074;13.754;2024-03-08T15:15:23;24.90;1.00
20291;DHT22;10304;51.074;13.754;2024-03-08T15:17:51;24.90;1.00
20291;DHT22;10304;51.074;13.754;2024-03-08T15:20:21;24.70;1.00
20291;DHT22;10304;51.074;13.754;2024-03-08T15:22:56;24.70;1.00
20291;DHT22;10304;51.074;13.754;2024-03-08T15:25:25;24.50;1.00
20291;DHT22;10304;51.074;13.754;2024-03-08T15:27:53;24.30;1.00
20291;DHT22;10304;51.074;13.754;2024-03-08T15:30:21;24.20;1.00
20291;DHT22;10304;51.074;13.754;2024-03-08T15:32:53;24.00;1.00
20291;DHT22;10304;51.074;13.754;2024-03-08T15:35:24;23.90;1.00
20291;DHT22;10304;51.074;13.754;2024-03-08T15:37:53;23.80;1.00
20291;DHT22;10304;51.074;13.754;2024-03-08T15:40:22;23.60;1.00
20291;DHT22;10304;51.074;13.754;2024-03-08T15:42:55;23.40;1.00
20291;DHT22;10304;51.074;13.754;2024-03-08T15:45:23;23.20;1.00
20291;DHT22;10304;51.074;13.754;2024-03-08T15:47:50;23.00;1.00
20291;DHT22;10304;51.074;13.754;2024-03-08T15:50:17;22.80;1.00